createdAt,value
2022-10-05T00:00:21.331Z,7.07
2022-10-05T00:02:50.104Z,12.30
2022-10-05T00:05:26.496Z,6.90
2022-10-05T00:07:55.584Z,9.03
2022-10-05T00:10:23.665Z,15.93
2022-10-05T00:12:51.319Z,7.47
2022-10-05T00:15:21.793Z,8.50
2022-10-05T00:17:49.630Z,7.20
2022-10-05T00:20:20.574Z,8.77
2022-10-05T00:22:48.460Z,12.33
2022-10-05T00:25:18.969Z,9.17
2022-10-05T00:27:54.281Z,11.80
2022-10-05T00:30:25.214Z,13.17
2022-10-05T00:32:58.647Z,8.83
2022-10-05T00:35:29.072Z,8.50
2022-10-05T00:37:57.187Z,9.90
2022-10-05T00:40:36.394Z,11.63
2022-10-05T00:43:26.363Z,8.37
2022-10-05T00:46:01.056Z,6.47
2022-10-05T00:48:39.363Z,9.50
2022-10-05T00:51:20.210Z,10.47
2022-10-05T00:53:55.606Z,11.80
2022-10-05T00:56:50.459Z,12.13
2022-10-05T00:59:33.234Z,13.43
2022-10-05T01:02:13.263Z,8.40
2022-10-05T01:04:48.336Z,9.53
2022-10-05T01:07:24.935Z,8.67
2022-10-05T01:10:00.287Z,10.27
2022-10-05T01:12:38.154Z,9.47
2022-10-05T01:15:12.877Z,12.47
2022-10-05T01:17:47.214Z,16.47
2022-10-05T01:20:32.047Z,12.40
2022-10-05T01:23:16.665Z,10.90
2022-10-05T01:25:57.230Z,10.53
2022-10-05T01:28:33.513Z,10.13
2022-10-05T01:31:10.484Z,9.60
2022-10-05T01:33:47.297Z,10.23
2022-10-05T01:36:25.641Z,9.63
2022-10-05T01:39:02.267Z,8.13
2022-10-05T01:41:35.353Z,9.67
2022-10-05T01:44:10.748Z,9.00
2022-10-05T01:46:44.183Z,7.53
2022-10-05T01:49:33.975Z,8.47
2022-10-05T01:52:15.618Z,11.83
2022-10-05T01:54:58.585Z,11.80
2022-10-05T01:57:36.053Z,8.80
2022-10-05T02:00:08.634Z,8.70
2022-10-05T02:02:46.990Z,8.77
2022-10-05T02:05:20.506Z,8.10
2022-10-05T02:07:52.993Z,10.40
2022-10-05T02:10:25.938Z,8.70
2022-10-05T02:12:59.811Z,8.17
2022-10-05T02:15:37.843Z,8.37
2022-10-05T02:18:14.289Z,8.93
2022-10-05T02:20:44.747Z,10.60
2022-10-05T02:23:15.620Z,9.80
2022-10-05T02:25:47.626Z,8.43
2022-10-05T02:28:22.009Z,8.13
2022-10-05T02:30:55.751Z,10.53
2022-10-05T02:33:29.029Z,8.43
2022-10-05T02:36:03.215Z,8.70
2022-10-05T02:38:41.638Z,11.47
2022-10-05T02:41:18.112Z,11.03
2022-10-05T02:43:53.923Z,14.43
2022-10-05T02:46:33.758Z,8.13
2022-10-05T02:49:13.640Z,13.40
2022-10-05T02:51:51.184Z,8.77
2022-10-05T02:54:35.457Z,12.30
2022-10-05T02:57:11.088Z,9.80
2022-10-05T02:59:42.698Z,10.70
2022-10-05T03:02:18.729Z,13.27
2022-10-05T03:04:56.750Z,14.03
2022-10-05T03:07:28.294Z,8.20
2022-10-05T03:10:04.533Z,9.17
2022-10-05T03:12:45.635Z,20.43
2022-10-05T03:15:25.139Z,11.70
2022-10-05T03:18:01.776Z,10.67
2022-10-05T03:20:39.045Z,11.97
2022-10-05T03:23:14.158Z,10.27
2022-10-05T03:26:01.380Z,10.03
2022-10-05T03:28:40.557Z,8.53
2022-10-05T03:31:18.193Z,8.10
2022-10-05T03:33:53.910Z,7.80
2022-10-05T03:36:31.010Z,9.90
2022-10-05T03:39:08.708Z,9.53
2022-10-05T03:41:43.471Z,7.30
2022-10-05T03:44:41.725Z,11.63
2022-10-05T03:47:15.579Z,11.73
2022-10-05T03:49:53.732Z,12.80
2022-10-05T03:52:27.716Z,10.20
2022-10-05T03:55:00.761Z,8.63
2022-10-05T03:57:34.226Z,10.07
2022-10-05T04:00:08.043Z,9.80
2022-10-05T04:02:55.526Z,8.10
2022-10-05T04:05:28.960Z,10.77
2022-10-05T04:08:02.501Z,14.30
2022-10-05T04:10:34.755Z,10.83
2022-10-05T04:13:08.109Z,8.17
2022-10-05T04:15:43.394Z,10.50
2022-10-05T04:18:20.849Z,11.30
2022-10-05T04:20:55.322Z,7.27
2022-10-05T04:23:35.325Z,12.90
2022-10-05T04:26:07.896Z,8.40
2022-10-05T04:28:47.116Z,11.30
2022-10-05T04:31:27.065Z,10.60
2022-10-05T04:34:06.180Z,12.60
2022-10-05T04:36:42.430Z,9.23
2022-10-05T04:39:20.616Z,9.40
2022-10-05T04:42:03.456Z,9.70
2022-10-05T04:44:49.223Z,11.30
2022-10-05T04:47:30.804Z,15.20
2022-10-05T04:50:12.005Z,8.60
2022-10-05T04:52:55.645Z,12.57
2022-10-05T04:55:32.068Z,15.00
2022-10-05T04:58:07.226Z,11.03
2022-10-05T05:00:49.250Z,11.00
2022-10-05T05:03:35.879Z,9.83
2022-10-05T05:06:18.040Z,10.97
2022-10-05T05:09:19.163Z,10.20
2022-10-05T05:12:00.269Z,9.63
2022-10-05T05:14:42.579Z,10.17
2022-10-05T05:17:26.284Z,11.40
2022-10-05T05:20:02.059Z,9.70
2022-10-05T05:22:39.781Z,9.60
2022-10-05T05:25:25.958Z,9.80
2022-10-05T05:27:59.003Z,9.43
2022-10-05T05:30:40.404Z,10.53
2022-10-05T05:33:19.135Z,12.80
2022-10-05T05:36:10.329Z,9.97
2022-10-05T05:38:45.173Z,11.07
2022-10-05T05:41:24.863Z,10.97
2022-10-05T05:44:05.699Z,11.83
2022-10-05T05:47:02.365Z,8.83
2022-10-05T05:49:41.919Z,11.93
2022-10-05T05:52:17.148Z,10.10
2022-10-05T05:54:51.765Z,7.77
2022-10-05T05:57:25.918Z,9.43
2022-10-05T06:00:05.503Z,7.73
2022-10-05T06:02:47.191Z,7.80
2022-10-05T06:05:28.197Z,10.07
2022-10-05T06:07:59.690Z,7.80
2022-10-05T06:10:35.779Z,8.77
2022-10-05T06:13:17.502Z,10.10
2022-10-05T06:15:51.938Z,9.33
2022-10-05T06:18:22.650Z,8.90
2022-10-05T06:20:58.673Z,13.03
2022-10-05T06:23:34.005Z,6.37
2022-10-05T06:26:22.513Z,7.13
2022-10-05T06:28:59.051Z,10.60
2022-10-05T06:31:44.035Z,10.33
2022-10-05T06:34:29.568Z,8.93
2022-10-05T06:37:01.285Z,8.73
2022-10-05T06:40:00.871Z,8.80
2022-10-05T06:42:45.575Z,10.00
2022-10-05T06:45:55.185Z,7.00
2022-10-05T06:48:51.846Z,8.70
2022-10-05T06:51:53.746Z,6.90
2022-10-05T06:54:42.558Z,7.33
2022-10-05T06:57:20.836Z,8.20
2022-10-05T06:59:58.839Z,9.00
2022-10-05T07:02:37.118Z,7.97
2022-10-05T07:05:28.440Z,12.60
2022-10-05T07:08:00.158Z,7.47
2022-10-05T07:10:33.791Z,5.17
2022-10-05T07:13:19.746Z,6.47
2022-10-05T07:15:59.864Z,6.00
2022-10-05T07:18:51.333Z,6.67
2022-10-05T07:21:32.812Z,9.60
2022-10-05T07:24:10.689Z,7.47
2022-10-05T07:26:42.241Z,6.23
2022-10-05T07:29:21.873Z,6.60
2022-10-05T07:31:58.529Z,6.40
2022-10-05T07:34:38.128Z,7.40
2022-10-05T07:37:28.356Z,7.83
2022-10-05T07:40:04.736Z,6.87
2022-10-05T07:42:52.128Z,9.30
2022-10-05T07:45:30.147Z,9.70
2022-10-05T07:48:07.545Z,6.60
2022-10-05T07:50:45.720Z,4.80
2022-10-05T07:53:19.757Z,6.17
2022-10-05T07:55:52.627Z,5.47
2022-10-05T07:58:24.526Z,8.07
2022-10-05T08:01:03.864Z,6.07
2022-10-05T08:03:48.190Z,7.43
2022-10-05T08:06:34.693Z,12.43
2022-10-05T08:09:08.360Z,7.30
2022-10-05T08:11:47.381Z,6.33
2022-10-05T08:14:21.927Z,7.57
2022-10-05T08:16:51.403Z,5.60
2022-10-05T08:19:24.377Z,5.37
2022-10-05T08:21:59.526Z,7.10
2022-10-05T08:24:40.257Z,4.30
2022-10-05T08:27:15.690Z,6.97
2022-10-05T08:29:50.184Z,6.40
2022-10-05T08:32:25.015Z,5.30
2022-10-05T08:34:59.132Z,20.63
2022-10-05T08:37:32.154Z,10.40
2022-10-05T08:40:26.078Z,6.60
2022-10-05T08:43:12.896Z,5.30
2022-10-05T08:46:02.232Z,5.00
2022-10-05T08:48:58.030Z,5.67
2022-10-05T08:51:56.499Z,5.20
2022-10-05T08:54:37.671Z,5.03
2022-10-05T08:57:27.500Z,11.53
2022-10-05T09:00:05.917Z,5.90
2022-10-05T09:02:51.442Z,5.70
2022-10-05T09:05:42.967Z,4.50
2022-10-05T09:08:40.720Z,9.30
2022-10-05T09:11:14.318Z,6.17
2022-10-05T09:13:59.948Z,5.90
2022-10-05T09:16:49.354Z,4.83
2022-10-05T09:19:35.089Z,6.87
2022-10-05T09:22:15.048Z,3.63
2022-10-05T09:24:57.119Z,3.77
2022-10-05T09:27:38.338Z,7.27
2022-10-05T09:30:18.375Z,5.23
2022-10-05T09:33:16.563Z,4.43
2022-10-05T09:36:30.140Z,5.10
2022-10-05T09:39:36.706Z,5.40
2022-10-05T09:42:21.675Z,4.13
2022-10-05T09:45:26.727Z,4.00
2022-10-05T09:48:23.772Z,5.83
2022-10-05T09:51:11.837Z,6.63
2022-10-05T09:54:08.355Z,4.27
2022-10-05T09:57:07.209Z,5.53
2022-10-05T10:00:10.140Z,4.50
2022-10-05T10:03:05.305Z,4.33
2022-10-05T10:05:58.433Z,4.40
2022-10-05T10:08:37.342Z,3.87
2022-10-05T10:11:35.840Z,8.60
2022-10-05T10:14:29.930Z,4.50
2022-10-05T10:17:32.857Z,5.37
2022-10-05T10:20:26.342Z,4.00
2022-10-05T10:23:28.287Z,3.90
2022-10-05T10:26:17.119Z,5.57
2022-10-05T10:29:03.686Z,5.37
2022-10-05T10:31:50.222Z,3.70
2022-10-05T10:34:59.168Z,8.00
2022-10-05T10:38:31.300Z,6.30
2022-10-05T10:41:35.554Z,3.67
2022-10-05T10:44:36.943Z,3.00
2022-10-05T10:47:36.324Z,3.13
2022-10-05T10:50:37.569Z,3.63
2022-10-05T10:53:27.557Z,3.83
2022-10-05T10:56:11.580Z,5.17
2022-10-05T10:59:06.375Z,3.60
2022-10-05T11:01:36.492Z,4.93
2022-10-05T11:04:45.831Z,5.23
2022-10-05T11:07:44.256Z,5.40
2022-10-05T11:10:59.415Z,3.37
2022-10-05T11:13:50.086Z,5.40
2022-10-05T11:16:44.041Z,2.50
2022-10-05T11:20:02.580Z,3.53
2022-10-05T11:22:54.399Z,6.53
2022-10-05T11:25:49.657Z,3.20
2022-10-05T11:28:41.182Z,2.57
2022-10-05T11:32:05.898Z,7.30
2022-10-05T11:35:13.481Z,2.70
2022-10-05T11:38:04.055Z,4.47
2022-10-05T11:40:57.891Z,2.90
2022-10-05T11:44:16.389Z,4.07
2022-10-05T11:46:55.694Z,3.30
2022-10-05T11:49:35.034Z,3.83
2022-10-05T11:52:09.811Z,2.97
2022-10-05T11:57:49.035Z,3.70
2022-10-05T12:00:19.537Z,3.23
2022-10-05T12:03:32.097Z,7.53
2022-10-05T12:06:26.866Z,7.00
2022-10-05T12:09:04.746Z,4.93
2022-10-05T12:11:58.451Z,3.50
2022-10-05T12:14:37.874Z,2.60
2022-10-05T12:17:17.458Z,3.13
2022-10-05T12:19:48.785Z,3.97
2022-10-05T12:22:22.525Z,2.53
2022-10-05T12:25:03.813Z,6.10
2022-10-05T12:27:37.149Z,5.27
2022-10-05T12:30:14.497Z,6.63
2022-10-05T12:32:56.883Z,3.33
2022-10-05T12:35:47.536Z,3.20
2022-10-05T12:38:26.909Z,2.40
2022-10-05T12:41:05.465Z,3.20
2022-10-05T12:43:44.733Z,3.80
2022-10-05T12:46:23.289Z,2.37
2022-10-05T12:49:22.950Z,3.37
2022-10-05T12:51:57.385Z,3.77
2022-10-05T12:54:37.254Z,2.67
2022-10-05T12:57:14.267Z,5.13
2022-10-05T12:59:47.557Z,3.53
2022-10-05T13:02:30.191Z,2.40
2022-10-05T13:05:07.839Z,2.67
2022-10-05T13:07:49.282Z,4.70
2022-10-05T13:10:29.055Z,3.60
2022-10-05T13:13:10.357Z,5.43
2022-10-05T13:15:48.267Z,3.20
2022-10-05T13:18:24.424Z,2.87
2022-10-05T13:21:02.710Z,5.07
2022-10-05T13:23:39.685Z,5.07
2022-10-05T13:26:13.306Z,3.00
2022-10-05T13:28:48.699Z,4.20
2022-10-05T13:31:22.684Z,2.47
2022-10-05T13:34:08.821Z,5.03
2022-10-05T13:36:47.965Z,3.13
2022-10-05T13:39:31.545Z,1.70
2022-10-05T13:42:07.077Z,2.13
2022-10-05T13:44:43.651Z,2.77
2022-10-05T13:47:20.866Z,4.70
2022-10-05T13:49:55.106Z,3.60
2022-10-05T13:52:42.111Z,3.37
2022-10-05T13:55:30.235Z,3.70
2022-10-05T13:58:06.713Z,3.80
2022-10-05T14:00:42.081Z,3.57
2022-10-05T14:03:27.483Z,3.20
2022-10-05T14:05:57.453Z,6.23
2022-10-05T14:08:29.812Z,3.73
2022-10-05T14:10:58.153Z,5.17
2022-10-05T14:13:32.801Z,2.00
2022-10-05T14:16:19.004Z,1.83
2022-10-05T14:18:55.991Z,3.87
2022-10-05T14:21:25.326Z,3.27
2022-10-05T14:23:53.866Z,3.73
2022-10-05T14:26:35.047Z,7.70
2022-10-05T14:29:17.904Z,3.33
2022-10-05T14:31:52.266Z,4.93
2022-10-05T14:34:29.240Z,4.47
2022-10-05T14:36:59.084Z,2.03
2022-10-05T14:39:28.040Z,2.90
2022-10-05T14:41:55.695Z,2.90
2022-10-05T14:47:17.649Z,2.27
2022-10-05T14:50:10.497Z,4.70
2022-10-05T14:52:41.155Z,2.47
2022-10-05T14:55:42.640Z,3.50
2022-10-05T14:58:25.848Z,3.63
2022-10-05T15:01:02.742Z,5.70
2022-10-05T15:03:46.595Z,3.20
2022-10-05T15:06:22.726Z,3.63
2022-10-05T15:09:16.447Z,2.43
2022-10-05T15:11:51.450Z,3.67
2022-10-05T15:14:23.899Z,2.10
2022-10-05T15:16:57.905Z,3.50
2022-10-05T15:19:32.780Z,3.00
2022-10-05T15:22:14.237Z,4.63
2022-10-05T15:24:45.925Z,7.20
2022-10-05T15:27:26.166Z,2.70
2022-10-05T15:30:04.336Z,3.13
2022-10-05T15:32:46.729Z,7.07
2022-10-05T15:35:35.970Z,3.10
2022-10-05T15:38:20.783Z,2.50
2022-10-05T15:40:59.075Z,3.10
2022-10-05T15:43:31.744Z,2.93
2022-10-05T15:46:10.922Z,2.43
2022-10-05T15:48:49.397Z,5.90
2022-10-05T15:51:29.977Z,2.60
2022-10-05T15:54:25.078Z,4.30
2022-10-05T15:56:58.239Z,2.60
2022-10-05T15:59:34.957Z,1.93
2022-10-05T16:02:14.266Z,3.47
2022-10-05T16:04:52.463Z,2.73
2022-10-05T16:07:42.505Z,4.00
2022-10-05T16:10:16.703Z,5.43
2022-10-05T16:12:53.114Z,3.27
2022-10-05T16:15:28.351Z,3.57
2022-10-05T16:18:32.464Z,4.97
2022-10-05T16:21:14.042Z,3.77
2022-10-05T16:23:54.901Z,3.23
2022-10-05T16:26:32.670Z,2.67
2022-10-05T16:29:04.367Z,2.83
2022-10-05T16:31:38.438Z,3.17
2022-10-05T16:34:23.191Z,4.70
2022-10-05T16:37:00.801Z,4.33
2022-10-05T16:39:48.855Z,2.80
2022-10-05T16:42:30.573Z,4.60
2022-10-05T16:45:06.725Z,2.60
2022-10-05T16:47:44.047Z,3.30
2022-10-05T16:50:22.341Z,5.63
2022-10-05T16:52:57.653Z,3.03
2022-10-05T16:55:33.928Z,3.10
2022-10-05T16:58:05.343Z,3.83
2022-10-05T17:00:48.671Z,3.67
2022-10-05T17:03:30.678Z,3.60
2022-10-05T17:06:18.276Z,3.23
2022-10-05T17:09:12.884Z,6.90
2022-10-05T17:12:04.049Z,2.60
2022-10-05T17:14:41.233Z,3.77
2022-10-05T17:17:32.828Z,5.20
2022-10-05T17:20:17.403Z,3.00
2022-10-05T17:22:52.282Z,3.87
2022-10-05T17:25:28.328Z,2.40
2022-10-05T17:27:57.873Z,4.60
2022-10-05T17:30:53.845Z,10.10
2022-10-05T17:33:25.732Z,5.80
2022-10-05T17:36:13.159Z,7.80
2022-10-05T17:38:50.323Z,4.20
2022-10-05T17:41:25.641Z,4.00
2022-10-05T17:44:35.237Z,4.17
2022-10-05T17:47:03.974Z,6.43
2022-10-05T17:50:24.410Z,3.97
2022-10-05T17:53:40.400Z,8.80
2022-10-05T17:56:09.011Z,5.63
2022-10-05T17:59:01.837Z,3.63
2022-10-05T18:01:37.689Z,6.17
2022-10-05T18:04:34.400Z,3.07
2022-10-05T18:07:05.074Z,3.20
2022-10-05T18:09:37.507Z,4.00
2022-10-05T18:12:15.226Z,5.10
2022-10-05T18:14:56.949Z,6.63
2022-10-05T18:17:45.169Z,6.73
2022-10-05T18:20:34.875Z,6.03
2022-10-05T18:23:30.022Z,3.80
2022-10-05T18:26:06.651Z,5.50
2022-10-05T18:28:47.795Z,4.70
2022-10-05T18:31:26.164Z,4.60
2022-10-05T18:34:03.075Z,2.30
2022-10-05T18:36:46.780Z,3.00
2022-10-05T18:39:27.101Z,5.63
2022-10-05T18:42:10.594Z,6.73
2022-10-05T18:44:42.973Z,2.60
2022-10-05T18:47:18.912Z,4.10
2022-10-05T18:49:59.364Z,4.27
2022-10-05T18:52:41.414Z,4.73
2022-10-05T18:55:18.388Z,4.73
2022-10-05T18:58:03.497Z,2.80
2022-10-05T19:00:44.695Z,4.33
2022-10-05T19:03:20.385Z,5.03
2022-10-05T19:05:57.762Z,2.83
2022-10-05T19:08:32.747Z,5.57
2022-10-05T19:11:09.048Z,2.97
2022-10-05T19:13:48.917Z,3.50
2022-10-05T19:16:30.761Z,6.63
2022-10-05T19:19:30.897Z,5.30
2022-10-05T19:22:04.769Z,5.67
2022-10-05T19:24:55.093Z,2.60
2022-10-05T19:27:33.642Z,2.97
2022-10-05T19:30:15.623Z,4.27
2022-10-05T19:32:56.249Z,2.93
2022-10-05T19:35:33.813Z,2.97
2022-10-05T19:38:15.794Z,3.33
2022-10-05T19:40:53.537Z,7.70
2022-10-05T19:43:42.121Z,4.43
2022-10-05T19:46:21.756Z,2.67
2022-10-05T19:48:53.487Z,4.57
2022-10-05T19:51:29.366Z,4.20
2022-10-05T19:54:00.887Z,2.70
2022-10-05T19:56:32.148Z,8.93
2022-10-05T19:59:13.045Z,4.50
2022-10-05T20:01:50.528Z,4.27
2022-10-05T20:04:33.987Z,6.73
2022-10-05T20:07:02.218Z,4.67
2022-10-05T20:09:31.051Z,4.70
2022-10-05T20:11:58.708Z,3.67
2022-10-05T20:14:31.957Z,3.80
2022-10-05T20:17:35.085Z,5.10
2022-10-05T20:20:25.859Z,8.67
2022-10-05T20:22:53.432Z,5.33
2022-10-05T20:25:32.228Z,4.47
2022-10-05T20:27:59.885Z,3.63
2022-10-05T20:30:31.299Z,5.40
2022-10-05T20:33:01.499Z,8.93
2022-10-05T20:35:30.592Z,5.73
2022-10-05T20:37:59.328Z,3.63
2022-10-05T20:40:27.551Z,6.23
2022-10-05T20:42:55.502Z,6.20
2022-10-05T20:45:23.350Z,8.87
2022-10-05T20:47:51.089Z,2.63
2022-10-05T20:50:21.002Z,5.93
2022-10-05T20:52:48.768Z,4.07
2022-10-05T20:55:16.622Z,5.23
2022-10-05T20:57:46.032Z,5.67
2022-10-05T21:00:14.462Z,5.53
2022-10-05T21:02:42.128Z,4.13
2022-10-05T21:05:10.621Z,5.63
2022-10-05T21:07:40.777Z,4.47
2022-10-05T21:10:09.355Z,4.83
2022-10-05T21:12:37.047Z,4.23
2022-10-05T21:15:05.872Z,6.50
2022-10-05T21:17:35.061Z,5.57
2022-10-05T21:20:02.872Z,3.10
2022-10-05T21:22:30.580Z,5.10
2022-10-05T21:24:59.680Z,4.47
2022-10-05T21:27:27.326Z,3.27
2022-10-05T21:29:55.025Z,3.83
2022-10-05T21:32:22.641Z,3.80
2022-10-05T21:34:50.319Z,7.20
2022-10-05T21:37:18.088Z,3.63
2022-10-05T21:39:45.797Z,4.57
2022-10-05T21:42:14.877Z,6.83
2022-10-05T21:44:42.635Z,9.93
2022-10-05T21:47:10.364Z,7.57
2022-10-05T21:49:38.132Z,2.83
2022-10-05T21:52:06.286Z,10.13
2022-10-05T21:54:34.977Z,3.50
2022-10-05T21:57:03.245Z,5.17
2022-10-05T21:59:35.061Z,3.50
2022-10-05T22:02:03.419Z,4.00
2022-10-05T22:04:31.102Z,4.60
2022-10-05T22:06:59.187Z,3.73
2022-10-05T22:09:27.037Z,4.00
2022-10-05T22:11:54.837Z,5.47
2022-10-05T22:14:22.688Z,4.50
2022-10-05T22:16:53.232Z,5.20
2022-10-05T22:19:21.494Z,6.33
2022-10-05T22:21:49.228Z,7.27
2022-10-05T22:24:16.974Z,2.80
2022-10-05T22:26:48.179Z,3.43
2022-10-05T22:29:17.112Z,1.90
2022-10-05T22:31:46.162Z,3.97
2022-10-05T22:34:15.521Z,3.83
2022-10-05T22:36:43.239Z,2.80
2022-10-05T22:39:10.958Z,3.20
2022-10-05T22:41:38.688Z,3.43
2022-10-05T22:44:07.204Z,3.43
2022-10-05T22:46:35.227Z,5.00
2022-10-05T22:49:03.199Z,8.30
2022-10-05T22:51:32.503Z,2.77
2022-10-05T22:54:00.183Z,3.50
2022-10-05T22:56:27.945Z,4.93
2022-10-05T22:58:56.254Z,7.23
2022-10-05T23:01:24.215Z,2.27
2022-10-05T23:03:52.121Z,3.20
2022-10-05T23:06:21.468Z,5.73
2022-10-05T23:08:50.727Z,4.23
2022-10-05T23:11:21.246Z,5.23
2022-10-05T23:13:50.255Z,3.30
2022-10-05T23:16:21.240Z,2.97
2022-10-05T23:18:50.495Z,5.93
2022-10-05T23:21:19.589Z,4.67
2022-10-05T23:23:50.843Z,4.67
2022-10-05T23:26:23.208Z,1.93
2022-10-05T23:28:50.988Z,4.97
2022-10-05T23:31:20.680Z,2.73
2022-10-05T23:33:48.554Z,2.27
2022-10-05T23:36:18.245Z,8.80
2022-10-05T23:38:46.093Z,2.47
2022-10-05T23:41:14.071Z,3.90
2022-10-05T23:43:43.746Z,5.20
2022-10-05T23:46:11.447Z,2.30
2022-10-05T23:48:39.212Z,3.43
2022-10-05T23:51:08.232Z,4.83
2022-10-05T23:53:36.016Z,3.67
2022-10-05T23:56:03.778Z,2.10
2022-10-05T23:58:31.833Z,2.10
